Time;durP1;ratioP1;P1;durP2;ratioP2;P2;SDS_P1;SDS_P2;PMS_P1;PMS_P2;Temp;Humidity;BMP_temperature;BMP_pressure;BME280_temperature;BME280_humidity;BME280_pressure;Samples;Min_cycle;Max_cycle;Signal;HPM_P1;HPM_P2
2021/06/23 00:02:21;;;;;;;10.43;3.63;;;18.60;99.90;;;19.14;66.98;101267.66;5112686;28;20198;-68
2021/06/23 00:04:47;;;;;;;13.10;3.75;;;18.60;99.90;;;19.14;66.76;101272.13;5112347;28;20693;-68
2021/06/23 00:07:14;;;;;;;10.32;3.90;;;18.60;99.90;;;19.12;66.87;101266.91;5113194;28;20213;-67
2021/06/23 00:09:42;;;;;;;10.02;4.05;;;18.50;99.90;;;19.12;67.12;101258.97;5114420;27;20576;-67
2021/06/23 00:12:15;;;;;;;10.95;3.45;;;18.50;99.90;;;19.12;66.91;101258.97;5120559;27;20203;-67
2021/06/23 00:14:43;;;;;;;12.13;4.30;;;18.50;99.90;;;19.10;66.82;101258.19;5122753;28;20264;-67
2021/06/23 00:17:10;;;;;;;8.55;3.70;;;18.50;99.90;;;19.12;66.63;101253.66;5133687;28;20241;-67
2021/06/23 00:19:37;;;;;;;9.15;3.80;;;18.50;99.90;;;19.10;66.83;101252.88;5120692;28;20211;-67
2021/06/23 00:22:04;;;;;;;11.35;3.88;;;18.50;99.90;;;19.06;67.12;101248.72;5112069;28;20194;-67
2021/06/23 00:24:31;;;;;;;10.00;3.80;;;18.50;99.90;;;19.04;67.03;101252.44;5130209;27;20198;-68
2021/06/23 00:26:59;;;;;;;10.02;3.53;;;18.50;99.90;;;19.03;67.14;101248.06;5114897;28;20206;-67
2021/06/23 00:29:26;;;;;;;10.20;4.00;;;18.40;99.90;;;19.03;67.41;101240.97;5114668;28;20263;-67
2021/06/23 00:31:53;;;;;;;10.07;3.90;;;18.40;99.90;;;19.00;67.93;101249.13;5113928;28;20187;-68
2021/06/23 00:34:22;;;;;;;10.48;3.45;;;18.40;99.90;;;18.98;67.43;101251.00;5114071;28;20207;-67
2021/06/23 00:36:49;;;;;;;15.57;4.90;;;18.40;99.90;;;18.97;67.61;101248.47;5113975;28;20198;-67
2021/06/23 00:39:16;;;;;;;15.77;4.60;;;18.40;99.90;;;18.96;67.97;101247.59;5112686;28;20799;-68
2021/06/23 00:41:43;;;;;;;11.50;4.28;;;18.40;99.90;;;18.96;67.96;101244.94;5111010;28;20195;-67
2021/06/23 00:44:12;;;;;;;10.98;4.22;;;18.40;99.90;;;18.97;68.10;101241.38;5111977;28;20222;-67
2021/06/23 00:46:40;;;;;;;10.73;4.55;;;18.40;99.90;;;18.97;68.05;101246.66;5129600;27;20187;-68
2021/06/23 00:49:09;;;;;;;11.18;4.40;;;18.40;99.90;;;18.95;68.02;101251.22;5113747;28;20202;-67
2021/06/23 00:52:08;;;;;;;11.60;4.40;;;18.30;99.90;;;18.92;68.38;101272.63;5111872;28;20186;-66
2021/06/23 00:54:50;;;;;;;11.18;3.92;;;18.30;99.90;;;18.90;68.28;101277.19;5112281;28;20596;-67
2021/06/23 00:57:21;;;;;;;9.60;3.78;;;18.30;99.90;;;18.89;68.28;101282.59;5111532;28;20222;-67
2021/06/23 00:59:56;;;;;;;12.30;4.10;;;18.30;99.90;;;18.89;68.76;101283.41;5113416;28;20674;-68
2021/06/23 01:02:25;;;;;;;10.07;4.00;;;18.30;99.90;;;18.89;68.59;101274.63;5107373;28;20236;-67
2021/06/23 01:04:55;;;;;;;14.02;4.20;;;18.30;99.90;;;18.90;68.92;101290.44;5108926;28;20192;-68
2021/06/23 01:07:22;;;;;;;9.25;3.50;;;18.30;99.90;;;18.88;68.76;101283.53;5112103;28;20207;-68
2021/06/23 01:09:56;;;;;;;8.63;3.35;;;18.30;99.90;;;18.89;68.73;101287.91;5111356;28;20278;-67
2021/06/23 01:12:47;;;;;;;9.73;3.25;;;18.30;99.90;;;18.89;68.80;101282.59;5113021;28;20648;-68
2021/06/23 01:15:16;;;;;;;9.30;3.40;;;18.30;99.90;;;18.88;68.96;101275.56;5111427;28;20201;-67
2021/06/23 01:17:43;;;;;;;8.23;3.53;;;18.30;99.90;;;18.83;69.15;101272.34;5111640;28;20267;-67
2021/06/23 01:20:13;;;;;;;11.38;3.95;;;18.30;99.90;;;18.79;69.35;101268.19;5113095;27;20179;-67
2021/06/23 01:22:45;;;;;;;10.90;3.80;;;18.20;99.90;;;18.74;69.28;101273.75;5111823;28;20253;-68
2021/06/23 01:25:16;;;;;;;17.88;3.47;;;18.20;99.90;;;18.68;69.45;101279.47;5104220;28;20179;-68
2021/06/23 01:27:46;;;;;;;9.00;3.90;;;18.20;99.90;;;18.64;70.08;101277.94;5112926;28;20198;-69
2021/06/23 01:30:16;;;;;;;9.82;3.70;;;18.10;99.90;;;18.64;69.84;101286.75;5111950;28;20187;-67
2021/06/23 01:32:47;;;;;;;8.45;3.58;;;18.10;99.90;;;18.62;69.65;101296.59;5111153;28;20199;-68
2021/06/23 01:35:15;;;;;;;15.15;4.00;;;18.00;99.90;;;18.58;70.33;101323.41;5112813;28;20196;-68
2021/06/23 01:37:44;;;;;;;10.77;3.95;;;18.00;99.90;;;18.51;70.14;101333.53;5111701;28;20628;-68
2021/06/23 01:40:14;;;;;;;9.00;3.65;;;18.00;99.90;;;18.47;70.29;101323.22;5112770;28;20225;-68
2021/06/23 01:42:41;;;;;;;10.80;3.90;;;17.90;99.90;;;18.47;69.96;101291.41;5112272;28;20187;-67
2021/06/23 01:45:10;;;;;;;9.43;3.50;;;17.90;99.90;;;18.46;70.18;101300.28;5111656;28;20248;-69
2021/06/23 01:47:37;;;;;;;8.27;3.20;;;17.90;99.90;;;18.46;70.01;101297.63;5110917;28;20215;-67
2021/06/23 01:50:06;;;;;;;12.45;3.50;;;17.90;99.90;;;18.45;69.72;101303.88;5126574;27;20193;-67
2021/06/23 01:52:43;;;;;;;10.50;3.47;;;17.80;99.90;;;18.43;69.59;101305.78;5111904;28;20545;-68
2021/06/23 01:55:27;;;;;;;8.60;3.00;;;17.80;99.90;;;18.39;69.48;101305.09;5104680;28;20190;-68
2021/06/23 01:58:02;;;;;;;11.52;3.28;;;17.80;99.90;;;18.33;69.78;101310.75;5111101;28;20651;-68
2021/06/23 02:00:42;;;;;;;8.95;3.30;;;17.70;99.90;;;18.30;69.74;101318.03;5121607;27;20259;-67
2021/06/23 02:03:18;;;;;;;12.73;3.30;;;17.70;99.90;;;18.24;69.85;101319.25;5110799;28;20195;-67
2021/06/23 02:06:03;;;;;;;11.50;3.53;;;17.70;99.90;;;18.16;70.33;101337.41;5111219;28;20186;-67
2021/06/23 02:08:51;;;;;;;9.35;3.10;;;17.60;99.90;;;18.12;70.36;101342.97;5110200;28;20247;-67
2021/06/23 02:11:34;;;;;;;8.52;3.05;;;17.60;99.90;;;18.08;70.50;101341.44;5102706;28;20198;-67
2021/06/23 02:14:38;;;;;;;9.10;3.15;;;17.60;99.90;;;18.10;70.76;101336.91;5123451;27;20570;-67
2021/06/23 02:17:31;;;;;;;10.68;3.38;;;17.60;99.90;;;18.07;70.76;101339.75;5103565;28;20238;-68
2021/06/23 02:20:18;;;;;;;10.18;3.30;;;17.50;99.90;;;18.05;70.85;101346.91;5112111;28;20570;-66
2021/06/23 02:22:47;;;;;;;8.77;3.50;;;17.50;99.90;;;18.04;70.80;101345.19;5108712;28;20313;-68
2021/06/23 02:25:19;;;;;;;11.23;3.50;;;17.50;99.90;;;18.05;70.87;101345.09;5107319;28;20192;-67
2021/06/23 02:28:01;;;;;;;9.77;3.80;;;17.60;99.90;;;18.04;70.86;101347.84;5109895;28;20226;-68
2021/06/23 02:30:28;;;;;;;9.50;3.33;;;17.50;99.90;;;18.02;71.22;101334.69;5111925;28;20190;-68
2021/06/23 02:33:00;;;;;;;10.68;3.75;;;17.50;99.90;;;18.03;71.69;101341.72;5111301;28;20190;-67
2021/06/23 02:35:40;;;;;;;9.45;3.67;;;17.50;99.90;;;18.04;71.87;101334.59;5111960;28;20201;-67
2021/06/23 02:38:20;;;;;;;10.00;4.00;;;17.50;99.90;;;18.05;71.83;101336.31;5112112;28;20202;-67
2021/06/23 02:40:52;;;;;;;10.85;3.60;;;17.50;99.90;;;18.01;71.56;101330.34;5110653;28;20205;-67
2021/06/23 02:43:19;;;;;;;9.43;3.55;;;17.50;99.90;;;17.95;71.66;101329.84;5110744;28;20219;-68
2021/06/23 02:45:48;;;;;;;9.27;3.55;;;17.40;99.90;;;17.88;71.59;101339.94;5110752;28;20183;-67
2021/06/23 02:48:15;;;;;;;9.63;3.60;;;17.40;99.90;;;17.84;71.59;101341.06;5110868;28;20202;-69
2021/06/23 02:51:03;;;;;;;8.80;3.45;;;17.40;99.90;;;17.81;72.05;101340.38;5107787;28;20541;-68
2021/06/23 02:53:33;;;;;;;12.60;3.63;;;17.30;99.90;;;17.78;71.60;101343.22;5111278;28;20563;-69
2021/06/23 02:56:03;;;;;;;8.82;3.75;;;17.30;99.90;;;17.76;71.93;101340.66;5127024;28;20202;-67
2021/06/23 02:58:45;;;;;;;11.38;3.75;;;17.30;99.90;;;17.76;71.81;101339.78;5109954;28;20560;-68
2021/06/23 03:01:14;;;;;;;12.75;4.05;;;17.20;99.90;;;17.71;71.72;101352.44;5111560;28;20186;-68
2021/06/23 03:03:49;;;;;;;9.80;3.50;;;17.20;99.90;;;17.62;71.88;101351.16;5110930;28;20655;-68
2021/06/23 03:06:18;;;;;;;8.75;3.65;;;17.20;99.90;;;17.56;71.75;101354.16;5111983;28;20179;-68
2021/06/23 03:08:47;;;;;;;8.88;3.60;;;17.10;99.90;;;17.48;72.13;101346.63;5112700;28;20210;-68
2021/06/23 03:11:24;;;;;;;9.25;3.60;;;17.00;99.90;;;17.45;72.39;101337.97;5129321;28;20194;-67
2021/06/23 03:14:12;;;;;;;13.43;4.00;;;17.10;99.90;;;17.47;72.27;101344.94;5126081;28;20245;-67
2021/06/23 03:16:44;;;;;;;10.88;3.75;;;17.00;99.90;;;17.52;72.54;101353.47;5110408;28;20214;-68
2021/06/23 03:19:13;;;;;;;11.10;3.92;;;17.00;99.90;;;17.55;72.63;101355.09;5111726;28;20195;-67
2021/06/23 03:21:40;;;;;;;11.30;4.30;;;17.10;99.90;;;17.57;72.62;101363.78;5109734;28;20244;-67
2021/06/23 03:24:08;;;;;;;8.73;3.70;;;17.10;99.90;;;17.60;72.63;101370.72;5110348;28;20193;-67
2021/06/23 03:26:37;;;;;;;11.32;4.25;;;17.10;99.90;;;17.58;72.99;101376.13;5110394;28;20281;-67
2021/06/23 03:29:27;;;;;;;10.57;4.20;;;17.10;99.90;;;17.57;73.02;101381.47;5110717;28;20182;-67
2021/06/23 03:31:55;;;;;;;10.88;4.25;;;17.10;99.90;;;17.53;73.37;101381.63;5123763;28;20624;-68
2021/06/23 03:34:25;;;;;;;10.40;3.80;;;17.00;99.90;;;17.53;73.49;101381.63;5111472;28;20293;-68
2021/06/23 03:37:00;;;;;;;9.93;3.78;;;17.00;99.90;;;17.51;73.63;101388.81;5110269;28;20206;-68
2021/06/23 03:39:27;;;;;;;10.60;4.35;;;17.00;99.90;;;17.48;73.67;101391.63;5130490;27;20236;-68
2021/06/23 03:42:02;;;;;;;9.52;3.97;;;17.00;99.90;;;17.41;74.08;101397.31;5113952;28;20558;-68
2021/06/23 03:44:32;;;;;;;12.43;4.72;;;16.90;99.90;;;17.34;74.23;101399.47;5113532;28;20298;-68
2021/06/23 03:47:01;;;;;;;8.88;3.83;;;16.90;99.90;;;17.33;74.44;101395.09;5114848;28;20210;-67
2021/06/23 03:49:29;;;;;;;11.27;3.97;;;16.90;99.90;;;17.29;74.51;101405.94;5113853;28;20218;-69
2021/06/23 03:52:00;;;;;;;10.60;4.10;;;16.90;99.90;;;17.20;74.65;101399.34;5114670;28;20244;-67
2021/06/23 03:54:27;;;;;;;9.85;4.50;;;16.80;99.90;;;17.11;75.06;101398.97;5112654;28;20270;-67
2021/06/23 03:56:58;;;;;;;12.77;4.57;;;16.70;99.90;;;17.08;75.30;101410.56;5112730;28;20752;-67
2021/06/23 03:59:26;;;;;;;10.82;4.18;;;16.70;99.90;;;17.05;75.14;101405.44;5106025;28;20315;-67
2021/06/23 04:01:55;;;;;;;9.65;4.20;;;16.60;99.90;;;17.04;75.18;101403.75;5109694;28;20198;-67
2021/06/23 04:04:22;;;;;;;13.52;4.35;;;16.60;99.90;;;17.07;75.12;101400.06;5104910;28;20186;-67
2021/06/23 04:06:58;;;;;;;10.80;4.38;;;16.60;99.90;;;17.08;75.18;101393.88;5114543;28;20705;-67
2021/06/23 04:09:25;;;;;;;12.98;4.90;;;16.60;99.90;;;17.12;75.02;101396.25;5125531;27;20183;-66
2021/06/23 04:11:59;;;;;;;11.50;4.63;;;16.60;99.90;;;17.13;74.93;101397.13;5130279;27;20290;-68
2021/06/23 04:14:28;;;;;;;11.52;4.25;;;16.60;99.90;;;17.16;74.83;101397.78;5111794;28;20241;-67
2021/06/23 04:16:57;;;;;;;12.05;4.95;;;16.60;99.90;;;17.23;74.97;101399.16;5113028;28;20271;-68
2021/06/23 04:19:25;;;;;;;12.60;4.35;;;16.70;99.90;;;17.28;74.76;101396.28;5112297;28;20235;-68
2021/06/23 04:21:58;;;;;;;12.00;4.35;;;16.70;99.90;;;17.26;74.64;101400.81;5111882;28;20619;-67
2021/06/23 04:24:26;;;;;;;11.40;4.43;;;16.70;99.90;;;17.25;74.89;101399.06;5129962;27;20236;-68
2021/06/23 04:26:54;;;;;;;12.35;4.72;;;16.80;99.90;;;17.25;75.04;101401.72;5112450;28;20725;-67
2021/06/23 04:29:22;;;;;;;10.77;4.43;;;16.80;99.90;;;17.25;74.96;101402.59;5107501;28;20239;-67
2021/06/23 04:31:54;;;;;;;11.30;4.53;;;16.80;99.90;;;17.27;75.08;101413.94;5112585;28;20193;-67
2021/06/23 04:34:21;;;;;;;14.07;4.78;;;16.90;99.90;;;17.32;74.91;101419.84;5113971;28;20247;-66
2021/06/23 04:36:53;;;;;;;12.13;4.55;;;16.90;99.90;;;17.35;74.64;101426.75;5112812;28;20238;-67
2021/06/23 04:39:20;;;;;;;11.88;4.82;;;16.90;99.90;;;17.37;74.58;101433.69;5112715;28;20667;-67
2021/06/23 04:42:05;;;;;;;11.30;4.93;;;17.00;99.90;;;17.42;74.21;101441.38;5111965;28;20277;-67
2021/06/23 04:44:32;;;;;;;12.70;4.70;;;17.00;99.90;;;17.44;74.23;101435.06;5113866;28;20261;-68
2021/06/23 04:47:00;;;;;;;13.82;4.75;;;17.00;99.90;;;17.47;74.27;101442.88;5111756;28;20206;-67
2021/06/23 04:49:28;;;;;;;11.05;4.88;;;17.10;99.90;;;17.56;74.75;101445.94;5106822;28;20174;-68
2021/06/23 04:52:12;;;;;;;13.75;5.18;;;17.10;99.90;;;17.65;74.17;101441.00;5112157;28;20273;-69
2021/06/23 04:54:40;;;;;;;15.40;4.88;;;17.20;99.90;;;17.71;74.03;101438.03;5113688;28;20609;-67
2021/06/23 04:57:09;;;;;;;11.88;4.63;;;17.30;99.90;;;17.70;74.10;101446.91;5112467;28;20213;-67
2021/06/23 04:59:36;;;;;;;11.43;4.75;;;17.30;99.90;;;17.74;74.08;101447.59;5110877;28;20248;-67
2021/06/23 05:02:05;;;;;;;16.38;5.30;;;17.30;99.90;;;17.76;73.91;101451.00;5112594;28;20187;-67
2021/06/23 05:04:33;;;;;;;10.27;4.65;;;17.30;99.90;;;17.85;73.51;101451.34;5110921;28;20187;-69
2021/06/23 05:07:02;;;;;;;12.00;4.72;;;17.40;99.90;;;17.95;73.21;101449.88;5112075;28;20211;-68
2021/06/23 05:09:29;;;;;;;13.95;4.68;;;17.50;99.90;;;18.03;72.98;101445.03;5108827;28;20218;-67
2021/06/23 05:11:55;;;;;;;14.82;4.70;;;17.60;99.90;;;18.07;72.86;101456.31;5112972;28;20182;-68
2021/06/23 05:14:22;;;;;;;11.82;5.70;;;17.70;99.90;;;18.07;72.76;101443.91;5112015;28;20222;-68
2021/06/23 05:16:50;;;;;;;13.48;5.00;;;17.80;99.90;;;18.10;72.38;101454.31;5112593;28;20222;-68
2021/06/23 05:19:19;;;;;;;13.73;6.90;;;17.80;99.90;;;18.16;72.59;101454.00;5109552;28;20229;-67
2021/06/23 05:21:47;;;;;;;16.95;6.03;;;17.80;99.90;;;18.20;72.25;101452.03;5127448;27;20705;-68
2021/06/23 05:24:13;;;;;;;15.38;5.90;;;17.90;99.90;;;18.28;72.04;101449.78;5098768;28;20186;-66
2021/06/23 05:26:40;;;;;;;12.20;5.18;;;18.00;99.90;;;18.34;71.56;101455.59;5112098;28;20183;-66
2021/06/23 05:29:07;;;;;;;11.57;4.63;;;18.10;99.90;;;18.38;71.51;101451.81;5095021;28;21961;-65
2021/06/23 05:31:34;;;;;;;11.48;4.50;;;18.20;99.90;;;18.40;70.97;101459.72;5102189;28;20548;-66
2021/06/23 05:34:01;;;;;;;10.05;3.90;;;18.10;99.90;;;18.40;71.19;101451.78;5100854;28;20183;-69
2021/06/23 05:36:29;;;;;;;9.75;4.40;;;18.20;99.90;;;18.47;70.97;101450.47;5108365;28;20206;-68
2021/06/23 05:38:56;;;;;;;9.30;4.03;;;18.30;99.90;;;18.51;70.79;101451.97;5109883;28;20197;-65
2021/06/23 05:41:23;;;;;;;10.95;3.78;;;18.30;99.90;;;18.57;70.59;101459.59;5119311;27;20187;-68
2021/06/23 05:43:50;;;;;;;11.05;3.22;;;18.40;99.90;;;18.63;70.41;101461.88;5113053;28;20186;-71
2021/06/23 05:46:17;;;;;;;13.32;3.50;;;18.50;99.90;;;18.69;70.04;101467.66;5107029;28;20674;-68
2021/06/23 05:48:43;;;;;;;9.60;3.58;;;18.50;99.90;;;18.71;69.74;101463.13;5108248;28;20702;-68
2021/06/23 05:51:10;;;;;;;17.83;4.47;;;18.60;99.90;;;18.69;69.56;101466.81;5112142;27;20195;-67
2021/06/23 05:53:38;;;;;;;14.45;4.43;;;18.50;99.90;;;18.68;69.26;101467.75;5109634;27;20656;-67
2021/06/23 05:56:06;;;;;;;13.48;4.20;;;18.50;99.90;;;18.68;69.55;101465.97;5103313;28;20218;-68
2021/06/23 05:58:33;;;;;;;13.57;4.15;;;18.50;99.90;;;18.70;69.49;101479.16;5095292;28;20215;-68
2021/06/23 06:01:01;;;;;;;13.32;4.90;;;18.60;99.90;;;18.70;69.28;101479.97;5124001;27;20650;-74
2021/06/23 06:03:27;;;;;;;12.60;3.60;;;18.60;99.90;;;18.76;68.87;101481.44;5104250;28;20195;-68
2021/06/23 06:05:54;;;;;;;10.63;3.20;;;18.60;99.90;;;18.82;68.62;101488.19;5120879;28;20194;-66
2021/06/23 06:08:21;;;;;;;12.38;3.25;;;18.60;99.90;;;18.82;68.27;101490.84;5124184;28;20236;-65
2021/06/23 06:10:49;;;;;;;13.82;3.35;;;18.60;99.90;;;18.83;68.62;101496.03;5118001;28;20210;-65
2021/06/23 06:13:16;;;;;;;13.15;3.13;;;18.60;99.90;;;18.84;68.43;101491.59;5102530;28;20182;-68
2021/06/23 06:15:43;;;;;;;13.38;4.10;;;18.60;99.90;;;18.90;68.26;101501.84;5101773;28;20226;-70
2021/06/23 06:18:10;;;;;;;11.75;3.90;;;18.70;99.90;;;18.91;68.41;101488.47;5111270;28;20206;-72
2021/06/23 06:20:37;;;;;;;8.45;3.25;;;18.70;99.90;;;18.94;68.25;101493.59;5104785;28;20190;-72
2021/06/23 06:23:06;;;;;;;10.40;3.67;;;18.80;99.90;;;18.99;68.03;101493.34;5105599;28;20565;-72
2021/06/23 06:25:33;;;;;;;12.75;3.50;;;18.80;99.90;;;19.02;67.89;101494.00;5100719;28;20249;-72
2021/06/23 06:28:01;;;;;;;11.00;3.53;;;18.80;99.90;;;19.06;67.91;101495.53;5102337;28;20227;-74
2021/06/23 06:30:28;;;;;;;10.80;3.38;;;18.90;99.90;;;19.13;67.67;101498.66;5106973;28;20585;-69
2021/06/23 06:32:55;;;;;;;10.10;3.67;;;19.00;99.90;;;19.15;67.74;101502.06;5107853;28;20199;-69
2021/06/23 06:35:22;;;;;;;12.07;3.38;;;19.00;99.90;;;19.15;67.29;101502.94;5103156;28;20218;-71
2021/06/23 06:37:49;;;;;;;15.73;3.30;;;19.10;99.90;;;19.17;67.48;101506.38;5107709;28;20283;-70
2021/06/23 06:40:18;;;;;;;17.23;3.58;;;19.10;99.90;;;19.20;67.10;101505.31;5124383;28;20194;-70
2021/06/23 06:42:45;;;;;;;12.30;3.30;;;19.20;99.90;;;19.17;67.06;101519.63;5110616;28;20207;-70
2021/06/23 06:45:13;;;;;;;9.23;3.03;;;19.10;99.90;;;19.17;67.37;101522.28;5107241;28;20190;-71
2021/06/23 06:47:40;;;;;;;12.13;3.15;;;19.20;99.90;;;19.19;67.26;101525.69;5108364;28;20689;-71
2021/06/23 06:50:08;;;;;;;8.85;3.08;;;19.20;99.90;;;19.25;67.09;101517.38;5101532;28;20659;-71
2021/06/23 06:52:35;;;;;;;15.10;3.38;;;19.30;99.90;;;19.35;66.66;101523.00;5110898;28;20560;-71
2021/06/23 06:55:02;;;;;;;9.77;3.10;;;19.40;99.90;;;19.44;66.47;101525.09;5110009;28;20202;-72
2021/06/23 06:57:29;;;;;;;13.60;3.13;;;19.50;99.90;;;19.50;66.53;101522.94;5101730;28;20203;-73
2021/06/23 06:59:56;;;;;;;10.15;3.13;;;19.60;99.90;;;19.53;66.38;101524.53;5098282;28;20205;-73
2021/06/23 07:02:24;;;;;;;8.88;2.97;;;19.60;99.90;;;19.61;66.27;101533.72;5099678;28;20191;-73
2021/06/23 07:04:51;;;;;;;10.70;3.03;;;19.80;99.90;;;19.65;65.95;101523.78;5105137;28;20711;-73
2021/06/23 07:07:18;;;;;;;9.80;2.90;;;19.80;99.90;;;19.64;65.81;101522.91;5104184;28;20211;-72
2021/06/23 07:09:45;;;;;;;8.88;2.70;;;19.80;99.90;;;19.68;65.90;101519.13;5105255;28;20194;-72
2021/06/23 07:12:12;;;;;;;10.27;2.85;;;19.80;99.90;;;19.69;65.62;101526.13;5099671;28;20198;-74
2021/06/23 07:14:39;;;;;;;9.88;2.80;;;19.80;99.90;;;19.69;65.07;101523.47;5109090;28;20191;-76
2021/06/23 07:17:05;;;;;;;10.10;2.70;;;19.80;99.90;;;19.70;64.84;101527.84;5104976;28;20210;-75
2021/06/23 07:19:34;;;;;;;11.15;3.00;;;19.80;99.90;;;19.72;65.09;101525.09;5104631;28;20302;-74
2021/06/23 07:22:00;;;;;;;14.48;2.92;;;19.80;99.90;;;19.73;65.19;101525.00;5114998;28;20678;-77
2021/06/23 07:24:27;;;;;;;10.73;2.97;;;19.80;99.90;;;19.73;65.24;101535.63;5112762;28;20187;-75
2021/06/23 07:26:58;;;;;;;14.43;3.20;;;19.80;99.90;;;19.77;65.21;101530.97;5099043;28;20216;-75
2021/06/23 07:29:26;;;;;;;12.00;2.75;;;19.80;99.90;;;19.78;65.46;101525.56;5098782;28;21517;-76
2021/06/23 07:31:57;;;;;;;14.57;3.20;;;19.80;99.90;;;19.82;65.29;101515.59;5112557;28;20667;-75
2021/06/23 07:36:31;;;;;;;10.73;3.00;;;19.90;99.90;;;19.90;65.20;101518.63;5113445;28;20201;-75
2021/06/23 07:37:24;;;;;;;13.70;3.10;;;20.00;99.90;;;20.06;64.91;101526.50;5114114;28;20306;-75
2021/06/23 07:39:52;;;;;;;9.05;3.30;;;20.20;99.90;;;20.18;64.69;101528.41;5109827;28;20608;-72
2021/06/23 07:42:19;;;;;;;8.43;3.15;;;20.40;99.90;;;20.28;64.21;101524.19;5103922;28;20198;-71
2021/06/23 07:44:49;;;;;;;13.30;3.58;;;20.50;99.90;;;20.30;64.47;101524.94;5110251;28;20195;-73
2021/06/23 07:47:19;;;;;;;11.05;3.63;;;20.60;99.90;;;20.39;64.04;101527.00;5113589;28;20309;-68
2021/06/23 07:49:46;;;;;;;10.30;3.08;;;20.70;99.90;;;20.39;63.71;101527.88;5104812;28;20198;-69
2021/06/23 07:52:19;;;;;;;12.05;2.70;;;20.70;99.90;;;20.39;63.80;101527.00;5107966;28;20183;-69
2021/06/23 07:54:59;;;;;;;9.30;2.67;;;20.70;99.90;;;20.36;64.15;101527.22;5104691;28;20198;-69
2021/06/23 08:11:15;;;;;;;10.18;2.67;;;20.70;99.90;;;20.53;63.73;101516.34;5102026;28;20207;-69
2021/06/23 08:13:42;;;;;;;9.77;2.92;;;20.80;99.90;;;20.60;63.08;101515.81;5104284;28;20188;-68
2021/06/23 08:16:09;;;;;;;11.05;2.50;;;20.90;99.90;;;20.63;63.22;101520.91;5103956;28;20218;-70
2021/06/23 08:18:36;;;;;;;11.80;2.97;;;20.90;99.90;;;20.71;63.20;101512.44;5108291;28;20214;-69
2021/06/23 08:21:03;;;;;;;9.82;2.72;;;20.90;99.90;;;20.73;62.95;101518.53;5105916;28;20194;-69
2021/06/23 08:23:30;;;;;;;11.60;3.03;;;21.00;99.90;;;20.73;62.63;101522.03;5107776;28;20199;-69
2021/06/23 08:25:57;;;;;;;10.15;2.70;;;21.00;99.90;;;20.77;62.20;101522.66;5108442;27;20191;-70
2021/06/23 08:28:25;;;;;;;10.00;2.55;;;21.00;99.90;;;20.83;62.26;101524.94;5099684;28;20211;-72
2021/06/23 08:30:52;;;;;;;12.80;3.15;;;21.00;99.90;;;20.84;62.51;101527.50;5107316;28;20194;-71
2021/06/23 08:33:24;;;;;;;10.85;3.10;;;21.10;99.90;;;20.92;62.60;101522.50;5111686;28;20187;-74
2021/06/23 08:35:52;;;;;;;9.05;2.53;;;21.10;99.90;;;21.07;62.24;101523.28;5100757;28;20291;-73
2021/06/23 08:38:19;;;;;;;12.55;2.80;;;21.30;99.90;;;21.19;62.17;101530.47;5103773;28;20263;-72
2021/06/23 08:40:46;;;;;;;7.05;2.20;;;21.50;99.90;;;21.23;61.38;101526.63;5113681;28;20190;-72
2021/06/23 08:43:15;;;;;;;9.32;2.95;;;21.50;99.90;;;21.19;61.30;101527.78;5116019;28;20643;-73
2021/06/23 08:45:45;;;;;;;16.30;6.00;;;21.50;99.90;;;21.15;61.44;101536.94;5109176;28;20191;-74
2021/06/23 08:48:12;;;;;;;12.95;3.60;;;21.50;99.90;;;21.11;61.06;101532.78;5111379;28;20214;-70
2021/06/23 08:50:41;;;;;;;11.18;3.35;;;21.40;99.90;;;21.11;60.65;101532.78;5103982;28;20269;-71
2021/06/23 08:53:08;;;;;;;12.48;3.33;;;21.40;99.90;;;21.11;60.75;101533.66;5115439;28;20638;-71
2021/06/23 08:55:36;;;;;;;14.57;3.38;;;21.40;99.90;;;21.17;60.79;101541.22;5114908;28;20195;-70
2021/06/23 08:58:05;;;;;;;12.82;3.45;;;21.50;99.90;;;21.21;60.68;101533.88;5120032;27;20224;-72
2021/06/23 09:00:33;;;;;;;10.70;3.00;;;21.50;99.90;;;21.24;60.75;101543.44;5130193;27;20194;-75
2021/06/23 09:03:03;;;;;;;9.10;2.95;;;21.50;99.90;;;21.29;60.64;101542.19;5137371;28;20249;-76
2021/06/23 09:05:51;;;;;;;8.65;2.80;;;21.60;99.90;;;21.38;59.98;101546.91;5128254;28;20250;-72
2021/06/23 09:08:34;;;;;;;10.38;2.65;;;21.70;99.90;;;21.38;60.08;101543.38;5106857;28;20206;-72
2021/06/23 09:11:04;;;;;;;8.80;2.40;;;21.70;99.90;;;21.45;59.42;101547.31;5103696;28;20187;-74
2021/06/23 09:13:32;;;;;;;10.68;2.88;;;21.80;99.90;;;21.52;59.14;101543.28;5117575;27;20196;-71
2021/06/23 09:16:02;;;;;;;9.02;2.40;;;21.80;99.90;;;21.58;58.46;101551.69;5107463;28;20302;-70
2021/06/23 09:18:34;;;;;;;11.23;2.60;;;21.90;99.90;;;21.64;57.77;101548.59;5109936;28;20212;-74
2021/06/23 09:21:07;;;;;;;11.00;2.97;;;22.00;99.90;;;21.67;57.04;101548.38;5105610;28;20191;-77
2021/06/23 09:23:43;;;;;;;10.77;3.28;;;22.00;99.90;;;21.67;57.09;101547.53;5104105;28;20191;-74
2021/06/23 09:26:17;;;;;;;10.68;3.65;;;22.00;99.90;;;21.57;56.95;101549.13;5106189;28;20272;-72
2021/06/23 09:28:46;;;;;;;12.93;4.03;;;21.90;99.90;;;21.49;56.53;101547.00;5104262;28;20742;-72
2021/06/23 09:31:14;;;;;;;11.45;3.55;;;21.70;99.90;;;21.43;57.04;101550.09;5082753;28;20199;-74
2021/06/23 09:33:42;;;;;;;9.98;2.70;;;21.60;99.90;;;21.42;57.32;101542.22;5089111;28;20573;-72
2021/06/23 09:36:12;;;;;;;11.38;2.90;;;21.70;99.90;;;21.52;57.17;101552.09;5097171;28;20196;-73
2021/06/23 09:38:45;;;;;;;9.32;2.70;;;21.80;99.90;;;21.60;56.80;101549.75;5090178;28;20215;-71
2021/06/23 09:41:29;;;;;;;8.73;2.60;;;21.90;99.90;;;21.73;56.38;101553.28;5087542;28;20188;-72
2021/06/23 09:43:58;;;;;;;9.10;3.03;;;22.10;99.90;;;21.87;55.93;101558.50;5089933;28;20282;-73
2021/06/23 09:46:28;;;;;;;11.13;3.08;;;22.30;99.90;;;22.05;55.39;101562.53;5102717;28;20259;-71
2021/06/23 10:02:23;;;;;;;10.48;3.20;;;22.80;99.90;;;22.77;53.20;101547.47;5130760;27;21415;-73
2021/06/23 10:04:50;;;;;;;9.70;3.10;;;22.90;99.90;;;22.53;53.23;101559.94;5124397;27;20218;-74
2021/06/23 10:07:39;;;;;;;9.48;3.63;;;22.90;99.90;;;22.41;53.72;101559.03;5128449;27;20341;-73
2021/06/23 10:10:08;;;;;;;6.95;2.60;;;22.80;99.90;;;22.31;54.20;101561.53;5130921;27;20210;-71
2021/06/23 10:12:35;;;;;;;10.90;3.45;;;22.80;99.90;;;22.22;54.33;101556.84;5134865;27;20233;-72
2021/06/23 10:15:03;;;;;;;15.05;5.10;;;22.70;99.90;;;22.16;54.86;101556.44;5127469;27;20196;-71
2021/06/23 10:17:33;;;;;;;14.30;4.00;;;22.70;99.90;;;22.17;54.81;101558.97;5122281;27;20201;-71
2021/06/23 10:20:04;;;;;;;9.73;3.55;;;22.70;99.90;;;22.15;54.77;101558.25;5126570;27;20601;-71
2021/06/23 10:22:32;;;;;;;10.77;3.15;;;22.70;99.90;;;22.14;54.75;101555.69;5137937;27;20843;-71
2021/06/23 10:25:06;;;;;;;10.60;3.03;;;22.60;99.90;;;22.09;54.76;101556.03;5141965;27;20231;-72
2021/06/23 10:27:35;;;;;;;10.65;3.22;;;22.60;99.90;;;22.11;55.08;101562.09;5133150;27;20198;-71
2021/06/23 10:30:06;;;;;;;10.48;4.00;;;22.60;99.90;;;22.15;55.12;101563.56;5123251;27;20215;-71
2021/06/23 10:32:33;;;;;;;12.75;3.60;;;22.60;99.90;;;22.15;55.32;101566.25;5125007;27;20207;-72
2021/06/23 10:35:00;;;;;;;9.30;3.80;;;22.60;99.90;;;22.15;54.86;101562.75;5124736;27;20200;-72
2021/06/23 10:37:33;;;;;;;9.98;3.42;;;22.50;99.90;;;22.19;54.81;101562.41;5118630;27;20194;-71
2021/06/23 10:40:06;;;;;;;12.55;4.25;;;22.50;99.90;;;22.30;55.57;101569.63;5124267;27;20221;-72
2021/06/23 10:42:33;;;;;;;11.40;3.97;;;22.60;99.90;;;22.33;54.95;101567.59;5137509;27;20217;-72
2021/06/23 10:45:00;;;;;;;13.07;3.83;;;22.70;99.90;;;22.35;55.08;101573.66;5125221;27;20656;-69
2021/06/23 10:47:37;;;;;;;10.82;3.70;;;22.70;99.90;;;22.32;55.42;101583.72;5117807;27;20275;-70
2021/06/23 10:50:06;;;;;;;15.05;4.43;;;22.70;99.90;;;22.29;55.65;101583.91;5128135;27;20267;-70